Time;durP1;ratioP1;P1;durP2;ratioP2;P2;SDS_P1;SDS_P2;PMS_P1;PMS_P2;Temp;Humidity;BMP_temperature;BMP_pressure;BME280_temperature;BME280_humidity;BME280_pressure;Samples;Min_cycle;Max_cycle;Signal;HPM_P1;HPM_P2
2023/06/16 00:01:35;;;;;;;12.57;6.43;;;;;;;20.83;66.06;100257.53;5043579;28;20025;-69
2023/06/16 00:04:03;;;;;;;12.00;6.53;;;;;;;20.86;66.29;100253.88;5020756;28;20100;-69
2023/06/16 00:06:29;;;;;;;9.15;6.30;;;;;;;20.86;66.00;100254.75;5038375;28;20059;-69
2023/06/16 00:08:56;;;;;;;9.63;6.07;;;;;;;20.89;65.96;100254.59;5038328;28;20385;-69
2023/06/16 00:11:22;;;;;;;11.93;6.68;;;;;;;20.90;65.90;100248.31;5020257;28;20510;-69
2023/06/16 00:13:49;;;;;;;12.48;6.40;;;;;;;20.87;65.89;100240.44;5020105;28;20048;-69
2023/06/16 00:16:26;;;;;;;10.70;6.60;;;;;;;20.87;65.95;100245.78;5038100;28;20029;-69
2023/06/16 00:18:53;;;;;;;9.73;6.10;;;;;;;20.88;65.81;100242.16;5037991;28;20486;-69
2023/06/16 00:21:29;;;;;;;10.60;6.37;;;;;;;20.84;66.35;100235.19;5038087;28;20030;-69
2023/06/16 00:23:56;;;;;;;12.57;6.43;;;;;;;20.78;66.16;100236.34;5038158;28;20545;-69
2023/06/16 00:26:22;;;;;;;10.45;6.43;;;;;;;20.72;66.41;100230.41;5020198;28;20033;-69
2023/06/16 00:28:48;;;;;;;12.73;6.82;;;;;;;20.72;66.51;100233.09;5038062;28;20049;-69
2023/06/16 00:31:13;;;;;;;10.57;6.67;;;;;;;20.70;66.23;100230.47;5037585;28;20461;-69
2023/06/16 00:33:38;;;;;;;10.33;6.57;;;;;;;20.71;66.25;100234.03;5038043;28;20029;-69
2023/06/16 00:36:04;;;;;;;10.57;6.20;;;;;;;20.71;66.29;100226.84;5020179;28;20040;-69
2023/06/16 00:38:29;;;;;;;9.13;6.30;;;;;;;20.71;66.45;100231.34;5037880;28;20347;-69
2023/06/16 00:40:55;;;;;;;10.87;5.93;;;;;;;20.69;66.67;100227.88;5037614;28;20021;-69
2023/06/16 00:43:20;;;;;;;11.97;7.40;;;;;;;20.67;66.38;100227.09;5019933;28;20024;-69
2023/06/16 00:45:48;;;;;;;12.80;7.10;;;;;;;20.65;66.23;100225.34;5037332;28;20021;-69
2023/06/16 00:48:14;;;;;;;10.87;7.10;;;;;;;20.64;66.13;100220.94;5037633;28;20045;-69
2023/06/16 00:50:40;;;;;;;12.27;6.63;;;;;;;20.61;66.48;100223.72;5037362;28;20056;-69
2023/06/16 00:53:05;;;;;;;12.55;6.85;;;;;;;20.59;66.34;100230.97;5037424;28;20026;-69
2023/06/16 00:55:31;;;;;;;13.50;7.67;;;;;;;20.51;66.59;100227.78;5037482;28;20096;-69
2023/06/16 00:57:57;;;;;;;10.80;7.50;;;;;;;20.41;66.86;100226.50;5019786;28;20029;-69
2023/06/16 01:00:22;;;;;;;12.77;7.90;;;;;;;20.25;67.58;100223.63;5050232;28;20299;-69
2023/06/16 01:02:49;;;;;;;11.40;8.10;;;;;;;20.12;67.65;100225.97;5019525;28;20052;-69
2023/06/16 01:05:17;;;;;;;13.65;7.65;;;;;;;20.13;67.84;100233.06;5019588;28;20024;-69
2023/06/16 01:08:13;;;;;;;11.15;7.13;;;;;;;20.16;68.16;100224.94;5037166;28;20069;-69
2023/06/16 01:11:15;;;;;;;13.98;8.40;;;;;;;20.18;68.10;100220.38;5019857;28;20025;-69
2023/06/16 01:13:59;;;;;;;13.40;7.88;;;;;;;20.06;68.18;100228.00;5037220;28;20025;-69
2023/06/16 01:16:29;;;;;;;10.90;7.03;;;;;;;20.03;68.17;100229.94;5037137;28;20108;-69
2023/06/16 01:18:55;;;;;;;13.20;7.63;;;;;;;20.02;68.28;100218.38;5037119;28;20025;-69
2023/06/16 01:21:37;;;;;;;13.20;8.15;;;;;;;19.99;68.42;100226.53;5036849;28;20410;-69
2023/06/16 01:24:18;;;;;;;14.43;7.40;;;;;;;19.98;68.62;100229.25;5019290;28;20026;-69
2023/06/16 01:26:52;;;;;;;15.75;7.78;;;;;;;19.97;68.46;100217.72;5007700;28;20029;-69
2023/06/16 01:29:21;;;;;;;11.90;7.57;;;;;;;19.98;68.55;100216.78;5037006;28;20021;-69
2023/06/16 01:31:48;;;;;;;11.05;7.47;;;;;;;20.00;68.38;100216.69;5036736;28;20370;-69
2023/06/16 01:34:15;;;;;;;13.45;7.63;;;;;;;19.98;68.54;100218.56;5036449;28;20061;-69
2023/06/16 01:36:42;;;;;;;13.57;8.15;;;;;;;19.89;68.67;100219.81;5036875;28;20067;-69
2023/06/16 01:39:10;;;;;;;13.38;8.45;;;;;;;19.82;68.71;100218.34;5019028;28;20354;-68
2023/06/16 01:41:36;;;;;;;13.47;8.63;;;;;;;19.76;69.30;100214.13;5036677;28;20124;-69
2023/06/16 01:44:04;;;;;;;13.07;8.90;;;;;;;19.70;69.21;100209.06;5036796;28;20021;-68
2023/06/16 01:46:30;;;;;;;13.52;7.95;;;;;;;19.66;69.17;100213.69;5036600;28;20504;-69
2023/06/16 01:48:56;;;;;;;12.88;8.43;;;;;;;19.64;69.31;100215.53;5036420;28;20042;-69
2023/06/16 01:51:22;;;;;;;15.50;8.10;;;;;;;19.59;69.87;100212.19;5036581;28;20032;-68
2023/06/16 01:53:49;;;;;;;12.88;8.48;;;;;;;19.56;69.81;100213.22;5036607;28;20550;-68
2023/06/16 01:56:15;;;;;;;13.98;8.50;;;;;;;19.53;69.83;100212.47;5036849;28;20085;-69
2023/06/16 01:58:41;;;;;;;15.77;8.10;;;;;;;19.53;69.81;100212.47;5040425;28;20048;-68
2023/06/16 02:01:11;;;;;;;14.20;7.95;;;;;;;19.47;70.39;100214.47;5045558;28;20018;-68
2023/06/16 02:03:43;;;;;;;13.45;8.73;;;;;;;19.40;70.81;100212.97;5036144;28;20033;-68
2023/06/16 02:06:17;;;;;;;13.85;8.85;;;;;;;19.34;70.93;100210.56;5014857;28;20021;-68
2023/06/16 02:08:45;;;;;;;16.35;8.65;;;;;;;19.30;71.17;100212.50;5023401;28;20084;-68
2023/06/16 02:11:11;;;;;;;14.47;8.77;;;;;;;19.30;70.88;100211.63;5036473;28;20132;-69
2023/06/16 02:13:37;;;;;;;14.45;8.90;;;;;;;19.27;71.29;100206.41;5036492;28;20053;-68
2023/06/16 02:16:02;;;;;;;15.98;8.18;;;;;;;19.26;71.03;100210.00;5036389;28;20815;-68
2023/06/16 02:18:28;;;;;;;16.67;8.40;;;;;;;19.24;71.06;100195.88;5036356;28;20044;-68
2023/06/16 02:20:55;;;;;;;15.20;8.90;;;;;;;19.20;71.01;100209.34;5036104;28;20490;-68
2023/06/16 02:23:20;;;;;;;17.83;8.53;;;;;;;19.18;71.20;100194.31;5023380;28;20283;-68
2023/06/16 02:25:46;;;;;;;13.52;8.45;;;;;;;19.15;71.31;100192.63;5036242;28;20022;-68
2023/06/16 02:28:12;;;;;;;16.97;8.70;;;;;;;19.10;71.59;100191.09;5036439;28;20033;-68
2023/06/16 02:30:37;;;;;;;19.65;9.20;;;;;;;19.02;71.62;100184.25;5036325;28;20131;-68
2023/06/16 02:33:04;;;;;;;15.70;9.50;;;;;;;18.98;71.94;100184.41;5036152;28;20458;-68
2023/06/16 02:35:29;;;;;;;14.73;8.60;;;;;;;18.93;72.10;100188.16;5018542;28;20030;-68
2023/06/16 02:37:55;;;;;;;16.00;8.87;;;;;;;18.92;71.96;100181.03;5018613;28;20556;-68
2023/06/16 02:40:20;;;;;;;14.47;9.10;;;;;;;18.92;72.11;100183.72;5018400;28;20024;-68
2023/06/16 02:42:48;;;;;;;13.82;8.85;;;;;;;18.91;72.17;100183.78;5036150;28;20108;-68
2023/06/16 02:45:14;;;;;;;14.73;8.87;;;;;;;18.90;72.21;100182.91;5037674;28;20029;-68
2023/06/16 02:47:40;;;;;;;13.15;8.90;;;;;;;18.93;72.07;100189.94;5022008;28;20497;-68
2023/06/16 02:50:07;;;;;;;16.35;8.00;;;;;;;18.96;71.92;100202.28;5039709;28;20034;-68
2023/06/16 02:52:32;;;;;;;16.17;8.65;;;;;;;18.99;71.97;100202.19;5039605;28;20517;-68
2023/06/16 02:54:58;;;;;;;16.53;8.23;;;;;;;19.01;71.65;100195.00;5039577;28;20104;-68
2023/06/16 02:57:23;;;;;;;14.27;8.93;;;;;;;18.97;71.85;100198.69;5039749;28;20366;-68
2023/06/16 02:59:49;;;;;;;15.68;9.07;;;;;;;18.91;71.73;100192.66;5039734;28;20401;-68
2023/06/16 03:02:14;;;;;;;16.37;8.70;;;;;;;18.86;72.00;100194.63;5021673;28;20033;-68
2023/06/16 03:04:40;;;;;;;11.87;8.43;;;;;;;18.84;71.98;100192.97;5021700;28;20095;-68
2023/06/16 03:07:06;;;;;;;17.65;8.45;;;;;;;18.83;72.14;100191.25;5031260;28;20370;-68
2023/06/16 03:09:32;;;;;;;17.00;8.53;;;;;;;18.79;72.05;100194.00;5021815;28;20030;-68
2023/06/16 03:11:58;;;;;;;14.27;8.00;;;;;;;18.76;72.02;100198.63;5039432;28;20010;-68
2023/06/16 03:14:23;;;;;;;17.58;9.02;;;;;;;18.75;72.18;100196.88;5039353;28;20030;-68
2023/06/16 03:16:50;;;;;;;17.20;8.77;;;;;;;18.72;72.00;100197.84;5039328;28;20451;-68
2023/06/16 03:19:16;;;;;;;13.32;8.23;;;;;;;18.71;72.04;100197.94;5039057;28;20021;-68
2023/06/16 03:21:42;;;;;;;14.68;8.13;;;;;;;18.72;71.85;100200.53;5039157;28;20079;-68
2023/06/16 03:24:09;;;;;;;15.10;8.93;;;;;;;18.74;71.78;100200.47;5021627;28;20024;-68
2023/06/16 03:26:35;;;;;;;12.77;7.57;;;;;;;18.74;71.91;100198.66;5026255;28;20032;-68
2023/06/16 03:29:00;;;;;;;17.88;8.15;;;;;;;18.72;71.94;100202.34;5039006;28;20033;-68
2023/06/16 03:31:26;;;;;;;12.93;7.87;;;;;;;18.73;71.97;100196.06;5039117;28;20061;-68
2023/06/16 03:33:52;;;;;;;13.68;7.95;;;;;;;18.74;72.02;100204.00;5039091;28;20025;-68
2023/06/16 03:36:18;;;;;;;12.80;7.40;;;;;;;18.76;71.68;100206.63;5038912;28;20040;-68
2023/06/16 03:38:43;;;;;;;14.15;8.57;;;;;;;18.79;71.69;100198.50;5039207;28;20033;-68
2023/06/16 03:41:09;;;;;;;15.87;8.13;;;;;;;18.77;71.62;100195.88;5034390;28;20025;-68
2023/06/16 03:43:34;;;;;;;16.50;8.43;;;;;;;18.74;71.78;100204.00;5038873;28;20436;-68
2023/06/16 03:46:00;;;;;;;14.73;8.10;;;;;;;18.72;71.88;100199.66;5038810;28;20049;-68
2023/06/16 03:48:25;;;;;;;16.33;8.00;;;;;;;18.70;71.38;100204.19;5038721;28;20048;-68
2023/06/16 03:50:52;;;;;;;14.20;7.87;;;;;;;18.68;71.88;100208.69;5038516;28;20028;-68
2023/06/16 03:53:19;;;;;;;13.63;7.53;;;;;;;18.68;71.71;100198.91;5038729;28;20025;-68
2023/06/16 03:55:44;;;;;;;12.40;7.53;;;;;;;18.69;71.59;100200.66;5038354;28;20474;-68
2023/06/16 03:58:10;;;;;;;15.97;7.20;;;;;;;18.72;71.48;100205.00;5038689;28;20048;-68
2023/06/16 04:00:36;;;;;;;12.07;7.55;;;;;;;18.74;71.42;100203.16;5051057;28;20075;-68
2023/06/16 04:03:01;;;;;;;13.00;7.30;;;;;;;18.72;71.38;100202.34;5038482;28;20026;-68
2023/06/16 04:05:27;;;;;;;13.20;7.13;;;;;;;18.71;71.32;100200.59;5020665;28;20112;-68
2023/06/16 04:07:54;;;;;;;15.47;7.50;;;;;;;18.69;71.40;100202.44;5038336;28;20029;-68
2023/06/16 04:10:19;;;;;;;15.75;7.38;;;;;;;18.68;71.19;100203.34;5038859;28;20013;-68
2023/06/16 04:12:45;;;;;;;13.83;7.90;;;;;;;18.63;71.18;100212.41;5020453;28;20034;-68
2023/06/16 04:15:11;;;;;;;11.50;7.57;;;;;;;18.59;71.22;100216.13;5038388;28;20478;-69
2023/06/16 04:17:36;;;;;;;13.13;7.70;;;;;;;18.55;71.49;100214.50;5038223;28;20108;-68
2023/06/16 04:20:05;;;;;;;13.27;8.30;;;;;;;18.49;71.56;100212.09;5038451;28;20026;-68
2023/06/16 04:22:30;;;;;;;13.25;8.00;;;;;;;18.43;71.84;100220.31;5037920;28;20037;-68
2023/06/16 04:24:56;;;;;;;15.77;7.97;;;;;;;18.43;71.71;100217.63;5038252;28;20029;-68
2023/06/16 04:27:23;;;;;;;15.57;8.00;;;;;;;18.43;71.74;100218.50;5038144;28;20021;-68
2023/06/16 04:29:49;;;;;;;14.80;7.27;;;;;;;18.47;71.69;100227.28;5020505;28;20036;-68
2023/06/16 04:32:15;;;;;;;14.30;7.72;;;;;;;18.50;71.43;100221.81;5037775;28;20029;-68
2023/06/16 04:34:42;;;;;;;19.63;8.68;;;;;;;18.45;71.83;100229.13;5020318;28;20026;-68
2023/06/16 04:37:11;;;;;;;16.67;8.93;;;;;;;18.40;72.11;100223.09;5037757;28;20398;-68
2023/06/16 04:39:37;;;;;;;15.73;8.93;;;;;;;18.36;72.11;100225.88;5038078;28;20025;-68
2023/06/16 04:42:04;;;;;;;16.13;8.80;;;;;;;18.36;72.06;100227.69;5038077;28;20040;-68
2023/06/16 04:44:30;;;;;;;15.38;9.00;;;;;;;18.32;72.07;100229.59;5037898;28;20047;-68
2023/06/16 04:46:56;;;;;;;17.97;9.17;;;;;;;18.34;72.16;100233.06;5019494;28;20587;-68
2023/06/16 04:49:21;;;;;;;14.05;8.65;;;;;;;18.35;71.99;100229.47;5037988;28;20029;-68
2023/06/16 04:51:47;;;;;;;17.40;8.10;;;;;;;18.39;71.94;100234.69;5019556;28;20025;-68
2023/06/16 04:54:12;;;;;;;15.67;8.50;;;;;;;18.43;71.72;100231.84;5019820;28;20029;-68
2023/06/16 04:56:39;;;;;;;15.70;8.07;;;;;;;18.44;71.96;100232.69;5037851;28;20482;-68
2023/06/16 04:59:05;;;;;;;16.63;9.40;;;;;;;18.45;72.01;100231.81;5044718;28;20024;-68
2023/06/16 05:01:31;;;;;;;16.33;9.10;;;;;;;18.56;71.58;100232.25;5043423;28;20834;-68
2023/06/16 05:03:56;;;;;;;13.17;8.80;;;;;;;18.68;71.19;100236.25;5037603;28;20045;-68
2023/06/16 05:06:21;;;;;;;15.47;8.83;;;;;;;18.77;70.81;100235.03;5019411;28;20385;-68
2023/06/16 05:08:47;;;;;;;14.67;9.93;;;;;;;18.79;71.09;100233.16;5036677;28;20279;-68
2023/06/16 05:11:12;;;;;;;16.13;9.87;;;;;;;18.77;71.26;100235.03;5037399;28;20032;-68
2023/06/16 05:13:37;;;;;;;15.97;9.40;;;;;;;18.86;70.97;100234.66;5037434;28;20104;-68
2023/06/16 05:16:03;;;;;;;14.40;9.10;;;;;;;18.94;70.70;100237.03;5037120;28;20026;-68
2023/06/16 05:18:29;;;;;;;19.65;10.07;;;;;;;18.99;70.40;100229.75;5030142;28;20017;-68
2023/06/16 05:20:54;;;;;;;17.63;9.93;;;;;;;18.98;70.29;100229.78;5036894;28;20035;-68
2023/06/16 05:23:20;;;;;;;18.63;9.52;;;;;;;19.02;70.36;100226.09;5037129;28;20569;-68
2023/06/16 05:25:45;;;;;;;21.43;10.77;;;;;;;19.05;70.41;100225.97;5037039;28;20105;-68
2023/06/16 05:28:11;;;;;;;20.27;10.47;;;;;;;19.02;70.43;100226.94;5019384;28;20018;-68
2023/06/16 05:30:36;;;;;;;19.77;11.33;;;;;;;19.06;70.88;100231.25;5019185;28;20444;-68
2023/06/16 05:33:02;;;;;;;19.37;11.03;;;;;;;19.00;70.79;100226.13;5036724;28;20322;-68
2023/06/16 05:35:27;;;;;;;19.00;10.10;;;;;;;19.01;70.77;100227.03;5036935;28;20025;-68
2023/06/16 05:37:53;;;;;;;21.15;11.80;;;;;;;19.00;70.75;100219.94;5036944;28;20029;-68
2023/06/16 05:40:18;;;;;;;20.77;12.60;;;;;;;19.03;71.19;100233.16;5036424;28;20025;-68
2023/06/16 05:42:44;;;;;;;20.60;11.23;;;;;;;18.98;71.59;100237.78;5018949;28;20026;-68
2023/06/16 05:45:09;;;;;;;20.70;12.10;;;;;;;19.08;71.14;100229.38;5036910;28;20397;-68
2023/06/16 05:47:35;;;;;;;21.93;11.90;;;;;;;19.12;71.13;100224.78;5036458;28;20291;-68
2023/06/16 05:50:01;;;;;;;22.70;10.97;;;;;;;19.15;71.35;100227.31;5036851;28;20021;-68
2023/06/16 05:52:26;;;;;;;19.92;10.80;;;;;;;19.24;70.91;100227.91;5036396;28;20025;-68
2023/06/16 05:54:52;;;;;;;22.90;11.00;;;;;;;19.30;71.05;100228.53;5036684;28;20519;-68
2023/06/16 05:57:17;;;;;;;24.13;10.93;;;;;;;19.36;70.77;100227.38;5018728;28;20104;-68
2023/06/16 05:59:42;;;;;;;27.37;11.17;;;;;;;19.43;70.81;100234.22;5032304;28;20275;-68
2023/06/16 06:02:08;;;;;;;19.50;10.63;;;;;;;19.53;70.36;100231.16;5036397;28;20029;-68
2023/06/16 06:04:33;;;;;;;18.60;10.37;;;;;;;19.60;70.34;100238.84;5032915;28;20026;-69
2023/06/16 06:07:00;;;;;;;23.63;10.70;;;;;;;19.75;70.05;100229.31;5026799;28;20025;-68
2023/06/16 06:09:26;;;;;;;16.08;10.23;;;;;;;19.84;69.70;100233.41;5031224;28;20025;-69
2023/06/16 06:11:51;;;;;;;21.17;9.95;;;;;;;19.96;69.35;100237.38;5035484;28;20029;-69
2023/06/16 06:14:17;;;;;;;18.07;10.50;;;;;;;20.10;68.77;100234.09;5036494;28;20037;-69
2023/06/16 06:16:43;;;;;;;20.00;10.32;;;;;;;20.19;68.57;100232.81;5035884;28;20037;-69
2023/06/16 06:19:09;;;;;;;19.13;10.53;;;;;;;20.29;68.75;100235.94;5032323;28;20024;-68
2023/06/16 06:21:35;;;;;;;16.77;10.57;;;;;;;20.36;68.77;100238.25;5020796;28;20021;-68
2023/06/16 06:24:01;;;;;;;21.23;11.07;;;;;;;20.46;68.57;100241.38;5038889;28;20033;-69
2023/06/16 06:26:26;;;;;;;18.88;11.05;;;;;;;20.49;68.83;100245.72;5018017;28;20040;-68
2023/06/16 06:28:52;;;;;;;19.30;10.57;;;;;;;20.47;68.45;100252.94;5020948;28;20037;-69
2023/06/16 06:31:18;;;;;;;19.80;10.90;;;;;;;20.55;68.35;100249.94;5040921;28;20095;-68
2023/06/16 06:33:43;;;;;;;14.20;9.73;;;;;;;20.62;68.62;100246.03;5044508;28;20284;-68
2023/06/16 06:36:09;;;;;;;21.40;9.80;;;;;;;20.80;68.28;100244.31;5045309;28;20024;-68
2023/06/16 06:38:35;;;;;;;17.23;10.20;;;;;;;20.97;67.68;100250.69;5056007;28;20025;-68
2023/06/16 06:41:00;;;;;;;19.50;10.00;;;;;;;21.05;67.27;100248.50;5045984;28;20021;-68
2023/06/16 06:43:26;;;;;;;22.13;9.98;;;;;;;21.14;67.49;100250.75;5032675;28;20030;-68
2023/06/16 06:45:51;;;;;;;20.30;9.50;;;;;;;21.30;66.75;100258.00;5034138;28;20037;-69
2023/06/16 06:48:17;;;;;;;21.37;10.20;;;;;;;21.42;66.82;100262.78;5033066;28;20045;-69
2023/06/16 06:50:43;;;;;;;18.75;9.80;;;;;;;21.55;66.65;100263.03;5038202;28;20192;-69
2023/06/16 06:53:08;;;;;;;19.30;10.60;;;;;;;21.70;66.26;100266.78;5037647;28;20067;-69
2023/06/16 06:55:34;;;;;;;18.17;9.30;;;;;;;21.84;66.06;100259.88;5037612;28;20025;-69
2023/06/16 06:58:00;;;;;;;22.83;9.90;;;;;;;22.08;65.58;100257.69;5038800;28;20057;-69
2023/06/16 07:00:26;;;;;;;17.70;9.80;;;;;;;22.14;65.70;100264.56;5042683;28;20041;-68
2023/06/16 07:02:51;;;;;;;18.03;9.77;;;;;;;22.19;65.54;100262.50;5011545;28;20112;-68
2023/06/16 07:05:17;;;;;;;17.93;10.37;;;;;;;22.24;65.14;100263.13;5037332;28;20417;-68
2023/06/16 07:07:42;;;;;;;16.85;10.25;;;;;;;22.28;65.52;100267.38;5020880;28;20053;-68
2023/06/16 07:10:08;;;;;;;16.93;9.47;;;;;;;22.34;65.22;100276.91;5038784;28;20039;-68
2023/06/16 07:12:33;;;;;;;17.57;9.87;;;;;;;22.50;64.89;100268.94;5021095;28;20108;-68
2023/06/16 07:14:59;;;;;;;19.30;8.68;;;;;;;22.67;64.67;100261.78;5038926;28;20020;-68
2023/06/16 07:17:25;;;;;;;16.97;8.50;;;;;;;22.94;64.50;100254.03;5039106;28;20048;-69
2023/06/16 07:19:50;;;;;;;13.23;8.48;;;;;;;23.12;63.64;100262.88;5036875;28;20028;-68
2023/06/16 07:22:16;;;;;;;15.27;8.60;;;;;;;23.25;63.63;100251.41;5038547;28;20037;-68
2023/06/16 07:24:41;;;;;;;14.97;9.03;;;;;;;23.43;63.50;100254.91;5038261;28;20025;-68
2023/06/16 07:27:07;;;;;;;18.77;10.40;;;;;;;23.51;62.65;100258.88;5038719;28;20017;-68
2023/06/16 07:29:33;;;;;;;13.15;8.90;;;;;;;23.55;62.68;100259.53;5035265;28;20049;-68
2023/06/16 07:31:58;;;;;;;19.43;10.00;;;;;;;23.54;62.47;100259.66;5036664;28;20112;-68
2023/06/16 07:34:23;;;;;;;18.92;10.15;;;;;;;23.56;62.54;100257.72;5038949;28;20029;-66
2023/06/16 07:36:49;;;;;;;17.57;9.47;;;;;;;23.62;62.38;100249.28;5038947;28;20036;-66
2023/06/16 07:39:14;;;;;;;19.40;9.63;;;;;;;23.73;62.02;100246.81;5038719;28;20032;-66
2023/06/16 07:41:40;;;;;;;19.17;9.83;;;;;;;23.84;61.50;100248.88;5038350;28;20029;-66
2023/06/16 07:44:05;;;;;;;15.27;9.47;;;;;;;23.94;61.57;100243.81;5038887;28;20264;-66
2023/06/16 07:46:32;;;;;;;14.10;9.00;;;;;;;24.15;61.17;100238.09;5038607;28;20017;-66
2023/06/16 07:48:57;;;;;;;17.35;9.35;;;;;;;24.31;60.92;100238.91;5038593;28;20046;-66
2023/06/16 07:51:23;;;;;;;17.73;9.07;;;;;;;24.52;60.84;100235.81;5038387;28;20601;-66
2023/06/16 07:53:48;;;;;;;15.50;8.60;;;;;;;24.72;60.28;100239.94;5038557;28;20037;-66
2023/06/16 07:56:16;;;;;;;13.43;9.23;;;;;;;24.92;59.53;100241.34;5038704;28;20028;-66
2023/06/16 07:58:42;;;;;;;14.18;8.43;;;;;;;25.17;59.79;100244.28;5042452;28;20025;-66
2023/06/16 08:01:07;;;;;;;14.47;8.70;;;;;;;25.42;59.12;100238.13;5047630;28;20052;-67
2023/06/16 08:03:33;;;;;;;15.90;8.83;;;;;;;25.54;58.82;100246.38;5038149;28;20025;-67
2023/06/16 08:05:58;;;;;;;11.98;8.93;;;;;;;25.50;58.07;100240.34;5038465;28;20033;-67
2023/06/16 08:08:28;;;;;;;14.43;8.47;;;;;;;25.36;58.00;100246.63;5020578;28;20048;-67
2023/06/16 08:10:56;;;;;;;15.07;8.88;;;;;;;25.33;57.95;100239.63;5038127;28;20061;-67
2023/06/16 08:13:22;;;;;;;13.48;8.32;;;;;;;25.36;57.91;100236.72;5038016;28;20060;-67
2023/06/16 08:15:48;;;;;;;14.90;7.70;;;;;;;25.54;57.61;100238.31;5032429;28;20137;-67
2023/06/16 08:18:13;;;;;;;16.17;7.43;;;;;;;25.67;56.95;100236.47;5036394;28;20112;-67
2023/06/16 08:20:39;;;;;;;14.37;7.50;;;;;;;25.90;57.21;100225.94;5037845;28;20017;-67
2023/06/16 08:23:04;;;;;;;15.48;7.88;;;;;;;26.14;56.17;100225.22;5037927;28;20026;-67
2023/06/16 08:25:30;;;;;;;17.73;7.50;;;;;;;26.29;56.49;100221.47;5038119;28;20030;-67
2023/06/16 08:27:55;;;;;;;15.10;7.60;;;;;;;26.36;56.03;100214.66;5038018;28;20075;-67
2023/06/16 08:30:20;;;;;;;20.03;11.40;;;;;;;26.33;55.12;100214.88;5037698;28;20025;-67
2023/06/16 08:32:46;;;;;;;18.03;8.00;;;;;;;26.45;55.39;100223.06;5037488;28;20030;-67
2023/06/16 08:35:12;;;;;;;13.32;7.72;;;;;;;26.48;54.90;100206.66;5037923;28;20025;-67
2023/06/16 08:37:38;;;;;;;13.13;7.60;;;;;;;26.37;54.75;100212.81;5037617;28;20112;-67
2023/06/16 08:40:10;;;;;;;16.05;7.97;;;;;;;26.42;54.96;100207.94;5037656;28;20061;-68
2023/06/16 08:42:37;;;;;;;12.50;6.85;;;;;;;26.58;55.03;100204.16;5036335;28;20025;-67
2023/06/16 08:45:03;;;;;;;16.00;7.87;;;;;;;26.71;53.70;100204.13;5036787;28;20088;-67
2023/06/16 08:47:29;;;;;;;12.70;7.00;;;;;;;26.73;53.92;100203.00;5037455;28;20060;-67
2023/06/16 08:49:56;;;;;;;15.38;6.22;;;;;;;26.87;54.11;100196.63;5019840;28;20444;-68
2023/06/16 08:52:23;;;;;;;17.45;7.03;;;;;;;27.02;52.96;100197.34;5037005;28;20029;-68
2023/06/16 08:54:57;;;;;;;12.67;6.40;;;;;;;27.16;53.09;100196.31;5019540;28;20025;-68
2023/06/16 08:57:23;;;;;;;11.05;6.72;;;;;;;27.28;52.62;100197.22;5019671;28;20040;-68
2023/06/16 08:59:50;;;;;;;12.00;7.10;;;;;;;27.40;52.55;100190.03;5050588;28;20381;-67
2023/06/16 09:02:17;;;;;;;11.43;6.63;;;;;;;27.57;51.92;100188.75;5036990;28;20036;-67
2023/06/16 09:04:43;;;;;;;12.93;7.55;;;;;;;27.73;51.88;100180.31;5037174;28;20496;-67
2023/06/16 09:07:09;;;;;;;13.33;7.13;;;;;;;27.78;51.24;100188.91;5036994;28;20520;-68
2023/06/16 09:09:34;;;;;;;17.80;7.65;;;;;;;27.87;51.22;100181.09;5037387;28;20025;-67
2023/06/16 09:12:12;;;;;;;16.27;7.50;;;;;;;27.91;51.39;100182.56;5037049;28;20119;-68
2023/06/16 09:14:39;;;;;;;12.45;7.03;;;;;;;28.11;51.38;100177.41;5036993;28;20520;-66
2023/06/16 09:17:08;;;;;;;14.50;7.60;;;;;;;28.22;50.22;100178.31;5029688;28;20037;-67
2023/06/16 09:19:47;;;;;;;12.32;6.70;;;;;;;28.22;50.29;100172.03;5019344;28;20118;-67
2023/06/16 09:22:18;;;;;;;11.77;6.90;;;;;;;28.45;50.34;100177.44;5036830;28;20075;-67
2023/06/16 09:24:45;;;;;;;11.15;6.68;;;;;;;28.54;49.97;100168.53;5036616;28;20026;-67
2023/06/16 09:27:12;;;;;;;14.23;6.82;;;;;;;28.63;49.96;100170.50;5025161;28;20398;-67
2023/06/16 09:29:38;;;;;;;11.43;7.47;;;;;;;28.78;49.24;100164.78;5035699;28;20057;-67
2023/06/16 09:32:08;;;;;;;11.70;7.27;;;;;;;28.88;49.61;100159.50;5036354;28;20071;-67
2023/06/16 09:34:35;;;;;;;12.57;7.97;;;;;;;28.98;48.54;100162.31;5036659;28;20446;-67
2023/06/16 09:37:03;;;;;;;13.10;8.13;;;;;;;29.01;47.92;100170.19;5018737;28;20108;-67
2023/06/16 09:39:29;;;;;;;13.33;8.17;;;;;;;28.97;47.56;100164.19;5036937;28;20026;-67
2023/06/16 09:41:56;;;;;;;16.35;8.90;;;;;;;28.82;47.34;100160.91;5036561;28;20052;-67
2023/06/16 09:44:24;;;;;;;14.90;7.75;;;;;;;28.79;48.12;100158.41;5035732;28;20026;-67
2023/06/16 09:46:52;;;;;;;14.75;8.90;;;;;;;28.86;47.96;100156.94;5035634;28;20021;-67
2023/06/16 09:49:26;;;;;;;13.52;8.15;;;;;;;28.96;47.95;100162.47;5034617;28;20025;-68
2023/06/16 09:51:58;;;;;;;17.30;8.20;;;;;;;29.11;48.27;100152.19;5036003;28;20033;-67
2023/06/16 09:54:25;;;;;;;10.45;7.55;;;;;;;29.26;47.77;100154.56;5036183;28;20093;-67
2023/06/16 09:56:54;;;;;;;13.95;7.95;;;;;;;29.34;47.35;100152.91;5036635;28;20029;-68
2023/06/16 09:59:20;;;;;;;13.48;8.02;;;;;;;29.30;46.89;100151.47;5027820;28;20013;-67
2023/06/16 10:01:46;;;;;;;13.27;8.45;;;;;;;29.35;47.29;100151.91;5039857;28;20072;-67
2023/06/16 10:04:15;;;;;;;16.67;7.90;;;;;;;29.44;47.11;100152.19;5036259;28;20020;-67
2023/06/16 10:06:48;;;;;;;13.95;8.75;;;;;;;29.46;46.61;100142.91;5036214;28;20036;-67
2023/06/16 10:09:17;;;;;;;19.63;9.73;;;;;;;29.59;47.34;100136.44;5036581;28;20497;-68
2023/06/16 10:11:45;;;;;;;13.25;8.25;;;;;;;29.71;46.43;100134.50;5035934;28;20017;-67
2023/06/16 10:14:11;;;;;;;12.20;8.13;;;;;;;29.84;45.36;100135.13;5036305;28;20030;-67
2023/06/16 10:16:38;;;;;;;15.03;8.33;;;;;;;29.88;45.25;100135.72;5006317;28;20029;-68
2023/06/16 10:19:05;;;;;;;12.32;8.30;;;;;;;29.95;45.17;100136.88;5031838;28;20025;-67
2023/06/16 10:21:31;;;;;;;12.50;7.72;;;;;;;30.03;45.13;100128.97;5035561;28;20033;-67
2023/06/16 10:23:57;;;;;;;12.07;7.53;;;;;;;30.16;45.43;100122.44;5035953;28;20050;-67
2023/06/16 10:26:23;;;;;;;13.17;8.33;;;;;;;30.21;45.05;100120.16;5035845;28;20028;-67
2023/06/16 10:28:50;;;;;;;13.43;7.45;;;;;;;30.29;44.79;100128.50;5035673;28;20026;-67
2023/06/16 10:31:16;;;;;;;12.73;7.70;;;;;;;30.34;44.81;100118.06;5017613;28;20035;-67
2023/06/16 10:33:58;;;;;;;15.53;8.13;;;;;;;30.36;44.22;100117.91;5036158;28;20507;-67
2023/06/16 10:36:29;;;;;;;15.13;8.50;;;;;;;30.50;44.45;100109.38;5023336;28;20045;-67
2023/06/16 10:38:59;;;;;;;12.57;7.65;;;;;;;30.67;43.81;100125.16;5033399;28;20030;-67
2023/06/16 10:41:27;;;;;;;9.82;6.70;;;;;;;30.77;43.99;100118.75;5035459;28;20026;-67
2023/06/16 10:43:52;;;;;;;10.25;7.75;;;;;;;30.78;43.24;100111.47;5035688;28;20030;-67
2023/06/16 10:46:20;;;;;;;14.07;7.77;;;;;;;30.89;42.71;100113.19;5035768;28;20017;-68
2023/06/16 10:49:04;;;;;;;10.68;7.95;;;;;;;30.83;42.22;100113.75;5017798;28;20505;-67
2023/06/16 10:51:48;;;;;;;12.60;7.40;;;;;;;30.76;40.09;100108.03;5035233;28;20510;-67
2023/06/16 10:54:37;;;;;;;10.70;6.93;;;;;;;30.79;42.19;100108.59;5023259;28;20029;-68
2023/06/16 10:57:05;;;;;;;9.25;6.55;;;;;;;30.83;42.15;100108.31;5023849;28;20095;-67
2023/06/16 10:59:50;;;;;;;12.63;6.68;;;;;;;31.00;41.55;100104.03;5046729;28;20032;-67
2023/06/16 11:02:22;;;;;;;12.02;7.10;;;;;;;31.03;41.55;100103.75;5022864;28;20054;-67
2023/06/16 11:05:07;;;;;;;10.40;6.47;;;;;;;30.92;40.25;100097.44;5035562;28;20128;-68
2023/06/16 11:07:36;;;;;;;15.73;7.45;;;;;;;31.12;40.28;100096.59;5039341;28;20026;-68
2023/06/16 11:10:02;;;;;;;12.13;8.00;;;;;;;31.14;40.71;100095.44;5039474;28;20033;-67
2023/06/16 11:12:27;;;;;;;11.35;7.65;;;;;;;31.13;40.63;100087.44;5038806;28;20026;-67
2023/06/16 11:14:53;;;;;;;10.37;7.20;;;;;;;31.22;40.87;100092.84;5034248;28;20030;-68
2023/06/16 11:17:19;;;;;;;12.23;7.30;;;;;;;31.39;40.58;100082.25;5015302;28;20029;-67